Bewolking Meer informatie Parkstad Weather Satellite


Neerslagradar Meer informatie Parkstad Rain Snow Radar


Onweersbuien Meer informatie Parkstad Lighntning


24/7 Weercamera Meer informatie Parkstad Weathercam


Natuurbrandrisico
CBI






Het weer levert geen direct gevaar op in Parkstad.    Er zijn geen waarschuwingen afgegeven voor Parkstad (045)

METAR rapporten vliegvelden

   
EHBK - Beek Nederland
Gewijzigd: 23-03-2019 21:25
Nevel, Grotendeels bewolkt  
Nevel, Grotendeels bewolkt  
   Wind: NNO 14.8 km/h
Wind: NNO 14.8 km/h
Temperatuur: 9°C
Voelt als: 7°C
Dauwpunt: 8°C
Vochtigheid: 94%
Barometer: 1030 hPa
Satelliet beelden: Grotendeels bewolkt
Zicht: 3 km
Bewolking: Licht bewolkt 244 m,
Grotendeels bewolkt 366 m,
Grotendeels bewolkt 427 m
EHBK 232025Z AUTO 03008KT 3300 BR FEW008 BKN012 BKN014 09/08 Q1030 NOSIG
EHBK - Maastricht Nederland
Gewijzigd: 23-03-2019 21:25
Nevel, Grotendeels bewolkt  
Nevel, Grotendeels bewolkt  
   Wind: NNO 14.8 km/h
Wind: NNO 14.8 km/h
Temperatuur: 9°C
Voelt als: 7°C
Dauwpunt: 8°C
Vochtigheid: 94%
Barometer: 1030 hPa
Satelliet beelden: Grotendeels bewolkt
Zicht: 3 km
Bewolking: Licht bewolkt 244 m,
Grotendeels bewolkt 366 m,
Grotendeels bewolkt 427 m
EHBK 232025Z AUTO 03008KT 3300 BR FEW008 BKN012 BKN014 09/08 Q1030 NOSIG
EBLG - Liège België
Gewijzigd: 23-03-2019 21:50
Nevel, Grotendeels bewolkt  
Nevel, Grotendeels bewolkt  
   Wind: NNO 9.3 km/h
Wind: NNO 9.3 km/h
Temperatuur: 9°C
Voelt als: 8°C
Dauwpunt: 7°C
Vochtigheid: 87%
Barometer: 1030 hPa
Satelliet beelden: Grotendeels bewolkt
Zicht: 3 km
Bewolking: Gedeeltelijk bewolkt 427 m,
Grotendeels bewolkt 1036 m
EBLG 232050Z 02005KT 3200 BR SCT014 BKN034 09/07 Q1030 BECMG BKN012
EDDK - Köln/Bonn Duitsland
Gewijzigd: 23-03-2019 21:20
Grotendeels bewolkt  
Grotendeels bewolkt  
   Wind: Noorden 3.7 km/h
Wind: Noorden 3.7 km/h
Temperatuur: 9°C
Dauwpunt: 6°C
Vochtigheid: 82%
Barometer: 1030 hPa
Satelliet beelden: Grotendeels bewolkt
Zicht: 9 km
Bewolking: Grotendeels bewolkt 1158 m
EDDK 232020Z 36002KT 9000 BKN038 09/06 Q1030 NOSIG
EDDL - Düsseldorf Duitsland
Gewijzigd: 23-03-2019 21:20
Grotendeels bewolkt  
Grotendeels bewolkt  
   Wind: NNO 9.3 km/h
Wind: NNO 9.3 km/h
Temperatuur: 10°C
Voelt als: 9°C
Dauwpunt: 8°C
Vochtigheid: 88%
Barometer: 1030 hPa
Satelliet beelden: Grotendeels bewolkt
Zicht: meer dan 10 km
Bewolking: Grotendeels bewolkt 701 m,
Grotendeels bewolkt 1128 m
EDDL 232020Z 03005KT 9999 BKN023 BKN037 10/08 Q1030 NOSIG
EHEH - Eindhoven Nederland
Gewijzigd: 23-03-2019 21:25
Bewolking  
Bewolking  
   Wind: Noorden 20.4 km/h
Wind: Noorden 20.4 km/h
Temperatuur: 9°C
Voelt als: 6°C
Dauwpunt: 5°C
Vochtigheid: 76%
Barometer: 1031 hPa
Satelliet beelden: Bewolking
Zicht: meer dan 10 km
Bewolking: Bewolking 610 m
EHEH 232025Z AUTO 01011KT 340V040 9999 OVC020 09/05 Q1031 WHT 36010KT 9999 BKN025
ELLX - Luxemburg Luxemburg
Gewijzigd: 23-03-2019 21:50
Gedeeltelijk bewolkt  
Gedeeltelijk bewolkt  
   Wind: NO 24.1 km/h
Wind: NO 24.1 km/h
Temperatuur: 7°C
Voelt als: 3°C
Dauwpunt: 3°C
Vochtigheid: 76%
Barometer: 1028 hPa
Satelliet beelden: Gedeeltelijk bewolkt
Zicht: 7 km
Bewolking: Gedeeltelijk bewolkt
ELLX 232050Z 05013KT 7000 NSC 07/03 Q1028 NOSIG
EGLL - London England
Gewijzigd: 23-03-2019 21:20
Grotendeels bewolkt  
Grotendeels bewolkt  
   Wind: Oosten 14.8 km/h
Wind: Oosten 14.8 km/h
Temperatuur: 9°C
Voelt als: 7°C
Dauwpunt: 4°C
Vochtigheid: 71%
Barometer: 1033 hPa
Satelliet beelden: Grotendeels bewolkt
Zicht: meer dan 10 km
Bewolking: Grotendeels bewolkt 1372 m
EGLL 232020Z AUTO 09008KT 9999 BKN045 09/04 Q1033 NOSIG
EBAW - Antwerpen België
Gewijzigd: 23-03-2019 21:20
Grotendeels bewolkt  
Grotendeels bewolkt  
   Wind: NNO 11.1 km/h
Wind: NNO 11.1 km/h
Temperatuur: 10°C
Voelt als: 8°C
Dauwpunt: 4°C
Vochtigheid: 67%
Barometer: 1031 hPa
Satelliet beelden: Grotendeels bewolkt
Zicht: meer dan 10 km
Bewolking: Grotendeels bewolkt 1402 m
EBAW 232020Z 03006KT 350V060 9999 BKN046 10/04 Q1031 NOSIG
EBOS - Oostende België
Gewijzigd: 23-03-2019 21:20
Grotendeels bewolkt  
Grotendeels bewolkt  
   Wind: NNO 22.2 km/h
Wind: NNO 22.2 km/h
Temperatuur: 7°C
Voelt als: 3°C
Dauwpunt: 3°C
Vochtigheid: 76%
Barometer: 1032 hPa
Satelliet beelden: Grotendeels bewolkt
Zicht: meer dan 10 km
Bewolking: Grotendeels bewolkt 1341 m
EBOS 232020Z 03012KT 9999 BKN044 07/03 Q1032 NOSIG
LEAL - La Nucia Spanje
Gewijzigd: 23-03-2019 21:30
Helder  
Helder  
   Wind: ONO 9.3 km/h
Wind: ONO 9.3 km/h
Temperatuur: 15°C
Dauwpunt: 11°C
Vochtigheid: 77%
Barometer: 1025 hPa
Zicht: meer dan 10 km
Bewolking: Helder
LEAL 232030Z 06005KT 020V100 CAVOK 15/11 Q1025 NOSIG
TNCA - Oranjestad Aruba
Gewijzigd: 23-03-2019 21:00
Gedeeltelijk bewolkt  
Gedeeltelijk bewolkt  
   Wind: Oosten 29.6 km/h
Wind: Oosten 29.6 km/h
Temperatuur: 29°C
Gevoelstemperatuur: 33°C
Dauwpunt: 23°C
Vochtigheid: 70%
Barometer: 1013 hPa
Satelliet beelden: Gedeeltelijk bewolkt
Zicht: meer dan 10 km
Bewolking: Gedeeltelijk bewolkt 579 m
TNCA 232000Z 09016KT 9999 SCT019 29/23 Q1013 NOSIG
TNCC - Willemstad Curacao
Gewijzigd: 23-03-2019 21:00
Helder  
Helder  
   Wind: Oosten 22.2 km/h
Wind: Oosten 22.2 km/h
Temperatuur: 29°C
Gevoelstemperatuur: 33°C
Dauwpunt: 23°C
Vochtigheid: 70%
Barometer: 1013 hPa
Satelliet beelden: Helder
Zicht: meer dan 10 km
Bewolking: Helder
TNCC 232000Z AUTO 10012KT 9999 NCD 29/23 Q1013
MTPP - Port au Prince Haitië
Gewijzigd: 23-03-2019 21:00
Licht bewolkt  
Licht bewolkt  
   Wind: NW 22.2 km/h
Wind: NW 22.2 km/h
Temperatuur: 31°C
Gevoelstemperatuur: 34°C
Dauwpunt: 21°C
Vochtigheid: 55%
Barometer: 1014 hPa
Satelliet beelden: Licht bewolkt
Zicht: meer dan 10 km
Bewolking: Licht bewolkt 793 m
MTPP 232000Z 32012KT 9999 FEW026 31/21 Q1014 A2994
ENVA - Trondheim Noorwegen
Gewijzigd: 23-03-2019 21:20
Grotendeels bewolkt  
Grotendeels bewolkt  
   Wind: Westen 53.7 km/h<br />Gust to 53.7 km/h
Wind: Westen 53.7 km/h
Gust to 53.7 km/h
Temperatuur: 3°C
Voelt als: -4°C
Dauwpunt: -1°C
Vochtigheid: 75%
Barometer: 1005 hPa
Satelliet beelden: Grotendeels bewolkt
Zicht: meer dan 10 km
Bewolking: Licht bewolkt 244 m,
Gedeeltelijk bewolkt 488 m,
Grotendeels bewolkt 853 m
ENVA 232020Z 26029G43KT 9999 FEW008 SCT016CB BKN028 03/M01 Q1005 RMK WIND 670FT 27036G57KT
ENBO - Bodø Noorwegen
Gewijzigd: 23-03-2019 21:20
Kleine regenbuien, Neerslag, Grotendeels bewolkt  
Kleine regenbuien, Neerslag, Grotendeels bewolkt  
   Wind: WZW 61.1 km/h<br />Gust to 61.1 km/h
Wind: WZW 61.1 km/h
Gust to 61.1 km/h
Temperatuur: 4°C
Voelt als: -3°C
Dauwpunt: 2°C
Vochtigheid: 87%
Barometer: 977 hPa
Satelliet beelden: Grotendeels bewolkt
Zicht: 8 km
Bewolking: Licht bewolkt 152 m,
Gedeeltelijk bewolkt 457 m,
Grotendeels bewolkt 762 m
ENBO 232020Z 25033G43KT 8000 -SHRA FEW005 SCT015 BKN025 04/02 Q0977 TEMPO 26033KT 3000 SHRAGS BKN012CB
ETNG - Geilenkirchen Duitsland
Gewijzigd: 22-03-2019 19:50
Verouderd
Helder  
Helder  
   Wind: varieert 1.9 km/h
Wind: varieert 1.9 km/h
Temperatuur: 14°C
Dauwpunt: 6°C
Vochtigheid: 59%
Barometer: 1026 hPa
Zicht: meer dan 10 km
Bewolking: Helder
ETNG 221850Z VRB01KT CAVOK 14/06 Q1026
 

Script ontwikkeld door  Saratoga-weather.org Aangepast voor de template door  Weerstation Leuven

U vindt ons ook hier:

Het Weer Aktueel

WOW Nederland KNMI

Vereniging voor Weerkunde en Klimatologie

UK Met Office Weather Observation Website (WOW)

WeatherCloud

Weather Underground

Awekas

Weatherlink IP

HAMweather, WeatherForYou, PWS Weather

Citizen Weather Observer Program (CWOP)

Apparatuur in gebruik:

Hardwareleverancier
Weerhuisje

Weerstation
Vantage Pro2+ UV

Weercomputer's
alix3d2 & wl330n

Weerprogramma's
Smartbedded

Satelliet NOAA's
WRX137 & KX137

Satelliet Eumetsat
Ayecka SR1 & Triax

Bliksemdetectie
Boltek StormTracker

Webleverancier
F-Service

Weerhuisje

Vantage Pro2+ UV

alix3d2 & wl330n

Smartbedded

WRX137 & KX137

Ayecka SR1 & Triax

Boltek StormTracker

F-Service